Latest Weather Observations for Yampi Sound (Defence)

IDW60801

Issued at 11:03 pm WST Saturday 23 January 2021 (issued every 10 minutes, with the page automatically refreshed every 10 minutes)

About weather observations | Map of weather stations | Latest weather observations for WA | Other Formats
Station Details ID: 003108 Name: YAMPI SOUND (DEFENCE) Lat: -16.77 Lon: 123.98 Height: 41.33 m
Data from the previous 72 hours. | See also: Recent months at Yampi Sound (Defence)
Date/Time
WST
Temp
°C
App
Temp
°C
Dew
Point
°C
Rel
Hum
%
Delta-T
°C
Wind Press
QNH
hPa
Press
MSL
hPa
Rain since
9am
mm
Dir  Spd
km/h
Gust
km/h
Spd
kts
Gust
kts
23/11:00pm 26.6 32.9 25.9 96 0.5 N 4 6 2 3 1010.2 - -
23/10:30pm 26.5 32.7 25.8 96 0.5 NNE 4 6 2 3 1010.5 - -
23/10:00pm 26.5 33.5 25.8 96 0.5 CALM 0 0 0 0 1010.5 - -
23/09:30pm 26.5 33.3 25.6 95 0.6 CALM 0 0 0 0 1010.4 - -
23/09:00pm 26.8 33.0 25.8 94 0.7 NNE 4 6 2 3 1010.2 - -
23/08:30pm 26.9 32.9 25.5 92 1.0 NNE 4 6 2 3 1009.8 - -
23/08:00pm 26.9 32.8 25.3 91 1.1 NNE 4 6 2 3 1009.4 - -
23/07:30pm 27.0 33.5 25.0 89 1.4 CALM 0 0 0 0 1009.1 - -
23/07:00pm 27.2 33.8 25.2 89 1.4 CALM 0 0 0 0 1008.7 - -
23/06:30pm 27.5 33.0 24.7 85 2.0 NNE 4 6 2 3 1008.7 - -
23/06:00pm 28.0 33.3 24.4 81 2.5 NNE 4 6 2 3 1008.3 - -
23/05:30pm 28.8 34.1 24.4 77 3.1 NNW 4 7 2 4 1008.3 - -
23/05:00pm 28.7 34.0 24.3 77 3.1 NW 4 9 2 5 1008.1 - -
23/04:30pm 28.6 32.2 23.7 75 3.4 NW 11 20 6 11 1007.6 - -
23/04:00pm 29.3 33.4 24.0 73 3.7 WNW 9 20 5 11 1007.5 - -
23/03:30pm 29.1 31.4 23.5 72 3.9 NW 17 32 9 17 1007.1 - -
23/03:00pm 31.5 34.0 23.1 61 5.8 WNW 15 33 8 18 1007.4 - -
23/02:30pm 33.0 36.9 24.2 60 6.2 NW 11 24 6 13 1007.3 - -
23/02:00pm 32.3 34.9 23.3 59 6.2 NW 15 22 8 12 1007.2 - -
23/01:30pm 32.4 35.8 23.4 59 6.2 NW 11 24 6 13 1006.9 - -
23/01:00pm 31.9 35.3 24.0 63 5.5 NW 13 20 7 11 1007.3 - -
23/12:30pm 32.0 35.9 24.3 63 5.4 NNW 11 19 6 10 1007.6 - -
23/12:00pm 31.4 35.5 24.5 67 4.8 NNW 11 20 6 11 1008.2 - -
23/11:30am 31.3 36.6 25.2 70 4.3 N 7 13 4 7 1008.5 - -
23/11:00am 30.5 35.8 25.3 74 3.7 N 7 13 4 7 1008.9 - -
23/10:30am 29.4 35.2 25.8 81 2.6 NE 6 9 3 5 1009.1 - -
23/10:00am 28.4 34.1 25.6 85 2.0 NNE 6 9 3 5 1009.4 - -
23/09:30am 27.8 33.5 25.6 88 1.6 NE 6 9 3 5 1009.6 - -
23/09:00am 27.0 32.8 25.8 93 0.8 NE 6 9 3 5 1009.8 - -
23/08:30am 26.6 32.9 24.8 90 1.3 CALM 0 2 0 1 1009.7 - -
23/08:00am 26.0 29.6 24.4 91 1.1 NNW 13 24 7 13 1009.6 - -
23/07:30am 26.2 31.8 25.5 96 0.5 N 6 9 3 5 1009.1 - -
23/07:00am 25.8 31.6 25.1 96 0.5 NNE 4 6 2 3 1008.9 - -
23/06:30am 25.7 31.3 24.8 95 0.6 NNE 4 6 2 3 1008.9 - -
23/06:00am 25.8 31.0 24.8 94 0.7 N 6 9 3 5 1008.2 - -
23/05:30am 26.6 32.7 25.7 95 0.6 W 4 6 2 3 1007.5 - -
23/05:00am 26.1 32.0 25.4 96 0.5 N 4 6 2 3 1007.3 - -
23/04:30am 26.1 32.3 25.2 95 0.6 N 2 4 1 2 1007.0 - -
23/04:00am 26.1 31.9 25.1 94 0.7 N 4 6 2 3 1006.6 - -
23/03:30am 26.4 32.1 25.0 92 1.0 N 4 7 2 4 1006.4 - -
23/03:00am 26.7 32.1 25.1 91 1.1 N 6 11 3 6 1006.3 - -
23/02:30am 26.8 31.9 25.0 90 1.3 N 7 11 4 6 1006.2 - -
23/02:00am 26.8 31.9 25.0 90 1.3 N 7 15 4 8 1006.3 - -
23/01:30am 26.7 32.2 25.3 92 1.0 N 6 11 3 6 1006.7 - -
23/01:00am 26.4 32.0 25.4 94 0.7 NNE 6 9 3 5 1006.9 - -
23/12:30am 26.4 31.8 25.2 93 0.8 N 6 9 3 5 1007.4 - -
23/12:00am 26.6 31.1 25.2 92 1.0 N 11 19 6 10 1007.6 - -
 
Date/Time
WST
Temp
°C
App
Temp
°C
Dew
Point
°C
Rel
Hum
%
Delta-T
°C
Wind Press
QNH
hPa
Press
MSL
hPa
Rain since
9am
mm
Dir  Spd
km/h
Gust
km/h
Spd
kts
Gust
kts
22/11:30pm 26.5 30.9 25.1 92 1.0 N 11 19 6 10 1007.6 - -
22/11:00pm 26.6 32.2 25.7 95 0.6 N 7 17 4 9 1008.1 - -
22/10:30pm 26.5 32.3 25.8 96 0.5 N 6 9 3 5 1008.2 - -
22/10:00pm 26.3 32.4 25.6 96 0.5 N 4 6 2 3 1008.3 - -
22/09:30pm 26.3 32.4 25.6 96 0.5 N 4 6 2 3 1008.3 - -
22/09:00pm 26.3 31.8 25.3 94 0.7 N 6 9 3 5 1008.0 - -
22/08:30pm 26.7 32.5 25.7 94 0.7 N 6 13 3 7 1007.9 - -
22/08:00pm 26.6 32.4 25.7 95 0.6 N 6 11 3 6 1007.9 - -
22/07:30pm 26.9 33.2 25.9 94 0.7 NNE 4 7 2 4 1007.5 - -
22/07:00pm 26.7 33.4 26.0 96 0.5 N 2 4 1 2 1006.9 - -
22/06:30pm 26.7 33.3 25.8 95 0.6 N 2 4 1 2 1007.0 - -
22/06:00pm 26.8 33.0 25.8 94 0.7 NNE 4 7 2 4 1006.7 - -
22/05:30pm 26.9 32.7 25.7 93 0.8 N 6 7 3 4 1006.5 - -
22/05:00pm 27.0 32.7 25.6 92 1.0 NNE 6 11 3 6 1006.3 - -
22/04:30pm 27.0 32.1 25.6 92 1.0 NNE 9 17 5 9 1006.2 - -
22/04:00pm 28.2 34.2 26.4 90 1.3 NNE 7 13 4 7 1005.9 - -
22/03:30pm 27.6 33.0 26.0 91 1.1 N 9 17 5 9 1006.0 - -
22/03:00pm 27.4 32.3 25.8 91 1.1 NNW 11 20 6 11 1006.2 - -
22/02:30pm 28.6 32.0 24.6 79 2.8 NNW 15 28 8 15 1006.2 - -
22/02:00pm 31.1 34.4 24.5 68 4.6 N 15 35 8 19 1006.0 - -
22/01:30pm 30.8 33.9 25.4 73 3.8 NNE 19 32 10 17 1006.3 - -
22/01:00pm 29.8 32.4 24.9 75 3.4 NNE 20 37 11 20 1007.0 - -
22/12:30pm 30.7 36.4 27.5 83 2.3 NNE 13 22 7 12 1006.9 - -
22/12:00pm 28.8 35.6 27.2 91 1.2 NNE 6 9 3 5 1007.5 - -
22/11:30am 27.0 31.9 25.8 93 0.8 NE 11 20 6 11 1008.2 - -
22/11:00am 28.3 34.7 26.7 91 1.1 NNE 6 9 3 5 1008.8 - -
22/10:30am 27.3 33.8 26.2 94 0.8 NNE 4 7 2 4 1009.1 - -
22/10:00am 26.8 32.7 25.9 95 0.6 NE 6 9 3 5 1009.4 - -
22/09:30am 26.4 32.4 25.5 95 0.6 NE 4 6 2 3 1009.5 - -
22/09:00am 26.2 32.5 25.3 95 0.6 NE 2 6 1 3 1009.7 - -
22/08:30am 26.0 30.9 25.3 96 0.5 ENE 9 15 5 8 1010.1 - -
22/08:00am 25.9 31.6 25.0 95 0.6 NE 4 6 2 3 1009.5 - -
22/07:30am 25.8 30.7 24.6 93 0.8 N 7 15 4 8 1009.6 - -
22/07:00am 26.3 32.2 25.4 95 0.6 N 4 7 2 4 1009.3 - -
22/06:30am 26.3 32.9 25.8 97 0.4 NNW 2 4 1 2 1008.6 - -
22/06:00am 25.5 32.0 25.0 97 0.3 CALM 0 2 0 1 1008.4 - -
22/05:30am 25.5 30.7 24.8 96 0.5 NNE 6 11 3 6 1008.2 - -
22/05:00am 25.7 30.8 25.0 96 0.5 NE 7 11 4 6 1008.1 - -
22/04:30am 25.8 31.8 25.5 98 0.2 N 4 7 2 4 1008.1 - -
22/04:00am 25.8 31.4 25.5 98 0.2 NE 6 11 3 6 1008.4 - -
22/03:30am 25.7 31.0 25.0 96 0.5 NNE 6 9 3 5 1008.3 - -
22/03:00am 25.8 31.6 25.1 96 0.5 NE 4 7 2 4 1008.0 - -
22/02:30am 25.7 31.0 25.0 96 0.5 NE 6 11 3 6 1008.2 - -
22/02:00am 25.7 31.1 25.2 97 0.3 NE 6 9 3 5 1008.2 - -
22/01:30am 25.5 31.2 25.0 97 0.3 NE 4 6 2 3 1008.8 - -
22/01:00am 25.4 30.4 24.5 95 0.6 NNE 6 7 3 4 1008.9 - -
22/12:30am 26.0 30.7 25.0 94 0.7 NNE 9 19 5 10 1009.4 - -
22/12:00am 26.5 33.2 26.0 97 0.4 NE 2 4 1 2 1009.2 - -
 
Date/Time
WST
Temp
°C
App
Temp
°C
Dew
Point
°C
Rel
Hum
%
Delta-T
°C
Wind Press
QNH
hPa
Press
MSL
hPa
Rain since
9am
mm
Dir  Spd
km/h
Gust
km/h
Spd
kts
Gust
kts
21/11:30pm 26.5 33.6 26.0 97 0.4 CALM 0 4 0 2 1009.7 - -
21/11:00pm 26.5 32.3 25.8 96 0.5 NE 6 7 3 4 1010.1 - -
21/10:30pm 26.4 32.5 25.7 96 0.5 NE 4 6 2 3 1010.1 - -
21/10:00pm 26.4 33.4 25.9 97 0.4 CALM 0 0 0 0 1010.2 - -
21/09:30pm 26.5 32.8 26.0 97 0.4 NE 4 6 2 3 1010.1 - -
21/09:00pm 26.3 33.3 25.8 97 0.4 CALM 0 0 0 0 1009.9 - -
21/08:30pm 26.4 33.1 25.9 97 0.4 NE 2 4 1 2 1009.6 - -
21/08:00pm 26.5 33.5 25.8 96 0.5 CALM 0 2 0 1 1009.4 - -
21/07:30pm 26.4 32.8 25.5 95 0.6 NNE 2 4 1 2 1009.8 - -
21/07:00pm 26.3 32.8 25.6 96 0.5 NNE 2 6 1 3 1008.9 - -
21/06:30pm 26.2 32.2 25.5 96 0.5 N 4 7 2 4 1008.4 - -
21/06:00pm 26.2 31.7 25.3 95 0.6 NNE 6 9 3 5 1008.1 - -
21/05:30pm 25.8 31.1 24.9 95 0.6 NNE 6 11 3 6 1007.5 - -
21/05:00pm 25.6 30.7 24.6 94 0.7 NNE 6 11 3 6 1007.7 - -
21/04:30pm 26.1 31.0 24.7 92 1.0 NNE 7 13 4 7 1007.9 - -
21/04:00pm 25.7 31.4 25.0 96 0.5 NNE 4 6 2 3 1007.6 - -
21/03:30pm 25.5 30.3 24.5 94 0.7 NNE 7 15 4 8 1008.0 - -
21/03:00pm 26.4 30.6 25.4 94 0.7 N 13 20 7 11 1008.5 - -
21/02:30pm 26.4 30.1 24.6 90 1.2 NNW 13 26 7 14 1008.9 - -
21/02:00pm 29.9 34.9 25.4 77 3.2 N 9 15 5 8 1008.9 - -
21/01:30pm 31.0 35.7 24.9 70 4.3 NNE 9 19 5 10 1008.4 - -
21/01:00pm 33.2 36.1 23.8 57 6.6 NNE 15 32 8 17 1008.5 - -
21/12:30pm 32.8 35.2 23.7 58 6.3 NNE 17 28 9 15 1008.3 - -
21/12:00pm 32.9 34.7 23.5 57 6.5 NNE 20 30 11 16 1008.7 - -
21/11:30am 33.2 35.0 23.5 56 6.7 NNE 20 37 11 20 1009.2 - -
21/11:00am 33.3 35.3 23.9 58 6.6 NE 20 35 11 19 1009.3 - -
21/10:30am 33.1 35.3 24.3 60 6.2 NNE 20 33 11 18 1009.2 - -
21/10:00am 32.8 34.1 24.0 60 6.2 NE 24 39 13 21 1009.9 - -
21/09:30am 31.4 33.5 23.8 64 5.3 NNE 19 35 10 19 1010.3 - -
21/09:00am 31.2 33.6 24.3 66 4.8 NE 19 30 10 16 1010.5 - -
21/08:30am 30.8 35.7 25.8 74 3.6 NE 11 20 6 11 1010.6 - -
21/08:00am 28.5 34.4 25.9 86 1.8 NNE 6 9 3 5 1010.3 - -
21/07:30am 27.2 32.7 25.6 91 1.1 NE 7 9 4 5 1009.9 - -
21/07:00am 26.4 33.1 25.4 94 0.7 CALM 0 2 0 1 1010.3 - -
21/06:30am 26.2 32.1 25.3 95 0.6 NNE 4 9 2 5 1010.9 - -
21/06:00am 26.0 32.0 25.5 97 0.4 ENE 4 6 2 3 1010.9 - -
21/05:30am 25.9 31.8 25.4 97 0.4 ENE 4 6 2 3 1010.7 - -
21/05:00am 25.9 32.1 25.2 96 0.5 NE 2 4 1 2 1010.5 - -
21/04:30am 25.7 32.0 24.8 95 0.6 CALM 0 0 0 0 1010.3 - -
21/04:00am 25.6 30.7 24.6 94 0.7 N 6 9 3 5 1010.4 - -
21/03:30am 25.5 30.5 24.5 94 0.7 N 6 7 3 4 1009.5 - -
21/03:00am 25.9 30.2 24.3 91 1.1 ESE 9 13 5 7 1008.9 - -
21/02:30am 26.5 31.3 24.2 87 1.6 NE 6 9 3 5 1010.5 - -
21/02:00am 27.5 32.8 24.4 83 2.2 NNE 4 6 2 3 1010.6 - -
21/01:30am 28.1 32.6 23.7 77 3.0 NE 6 9 3 5 1010.2 - -
21/01:00am 27.5 33.4 24.7 85 2.0 NNE 2 9 1 5 1010.3 - -
21/12:30am 27.4 33.5 25.6 90 1.3 NNE 4 6 2 3 1010.2 - -
21/12:00am 27.5 34.3 25.5 89 1.4 CALM 0 0 0 0 1010.5 - -
 
Date/Time
WST
Temp
°C
App
Temp
°C
Dew
Point
°C
Rel
Hum
%
Delta-T
°C
Wind Press
QNH
hPa
Press
MSL
hPa
Rain since
9am
mm
Dir  Spd
km/h
Gust
km/h
Spd
kts
Gust
kts
20/11:30pm 27.5 34.3 25.5 89 1.4 CALM 0 0 0 0 1010.9 - -

Other formats

Comma delimited format used in spreadsheet applications
http://www.bom.gov.au/fwo/IDW60801/IDW60801.95208.axf

JavaScript Object Notation format (JSON) in row-major order
http://www.bom.gov.au/fwo/IDW60801/IDW60801.95208.json

Data quality

Most of these data are generated automatically and are frequently updated. Quality checks on data are not normally performed. It is possible for incorrect values to appear. Refer to information at About Latest Weather Observations and please check the disclaimer before using these data.